createdAt,value
2023-05-14T00:00:08.330Z,57.86
2023-05-14T00:02:55.941Z,57.79
2023-05-14T00:05:22.484Z,57.81
2023-05-14T00:07:48.846Z,57.82
2023-05-14T00:10:15.134Z,57.79
2023-05-14T00:12:41.370Z,59.10
2023-05-14T00:15:07.956Z,63.18
2023-05-14T00:17:34.482Z,62.62
2023-05-14T00:20:00.789Z,63.59
2023-05-14T00:22:27.121Z,63.18
2023-05-14T00:24:53.429Z,61.43
2023-05-14T00:27:19.704Z,62.84
2023-05-14T00:29:45.996Z,66.43
2023-05-14T00:32:12.302Z,65.94
2023-05-14T00:34:38.591Z,66.54
2023-05-14T00:37:04.831Z,66.42
2023-05-14T00:39:31.156Z,66.57
2023-05-14T00:41:57.404Z,65.45
2023-05-14T00:44:23.680Z,64.53
2023-05-14T00:46:50.083Z,63.07
2023-05-14T00:49:16.875Z,63.22
2023-05-14T00:51:43.620Z,61.88
2023-05-14T00:54:10.197Z,60.91
2023-05-14T00:56:36.571Z,60.48
2023-05-14T00:59:03.541Z,60.35
2023-05-14T01:01:29.979Z,60.15
2023-05-14T01:03:56.869Z,60.11
2023-05-14T01:06:45.094Z,60.03
2023-05-14T01:09:16.891Z,59.93
2023-05-14T01:11:43.195Z,59.91
2023-05-14T01:14:28.302Z,60.07
2023-05-14T01:16:57.201Z,59.99
2023-05-14T01:19:33.211Z,59.83
2023-05-14T01:21:59.486Z,59.93
2023-05-14T01:24:25.903Z,60.23
2023-05-14T01:26:53.213Z,60.11
2023-05-14T01:29:21.244Z,60.07
2023-05-14T01:31:49.235Z,60.37
2023-05-14T01:34:15.685Z,60.70
2023-05-14T01:36:42.271Z,60.29
2023-05-14T01:39:09.725Z,60.11
2023-05-14T01:41:37.245Z,59.97
2023-05-14T01:44:03.569Z,60.03
2023-05-14T01:46:33.014Z,60.37
2023-05-14T01:48:59.598Z,60.50
2023-05-14T01:51:26.383Z,60.91
2023-05-14T01:53:52.634Z,61.03
2023-05-14T01:56:19.467Z,61.09
2023-05-14T01:58:45.742Z,61.25
2023-05-14T02:01:12.440Z,61.40
2023-05-14T02:03:38.958Z,61.25
2023-05-14T02:06:05.807Z,61.24
2023-05-14T02:08:32.193Z,61.79
2023-05-14T02:10:58.931Z,62.10
2023-05-14T02:13:25.689Z,61.89
2023-05-14T02:15:51.969Z,61.87
2023-05-14T02:18:18.275Z,61.36
2023-05-14T02:20:45.836Z,61.35
2023-05-14T02:23:12.159Z,61.37
2023-05-14T02:25:38.415Z,61.39
2023-05-14T02:28:04.681Z,61.36
2023-05-14T02:30:30.912Z,61.56
2023-05-14T02:32:57.606Z,61.97
2023-05-14T02:35:23.991Z,62.32
2023-05-14T02:37:50.289Z,61.96
2023-05-14T02:40:16.602Z,61.79
2023-05-14T02:42:42.865Z,62.66
2023-05-14T02:45:09.321Z,63.29
2023-05-14T02:47:37.836Z,64.87
2023-05-14T02:50:04.881Z,66.03
2023-05-14T02:52:31.272Z,69.18
2023-05-14T02:54:57.537Z,71.65
2023-05-14T02:57:23.815Z,70.84
2023-05-14T02:59:50.201Z,71.36
2023-05-14T03:02:17.034Z,70.19
2023-05-14T03:04:43.831Z,71.17
2023-05-14T03:07:10.090Z,72.38
2023-05-14T03:09:38.298Z,73.77
2023-05-14T03:12:05.138Z,73.55
2023-05-14T03:14:31.398Z,72.22
2023-05-14T03:16:57.962Z,72.76
2023-05-14T03:19:24.327Z,72.30
2023-05-14T03:21:50.813Z,70.90
2023-05-14T03:24:17.116Z,70.48
2023-05-14T03:26:43.810Z,70.19
2023-05-14T03:29:10.079Z,70.87
2023-05-14T03:31:36.402Z,70.88
2023-05-14T03:34:02.832Z,71.09
2023-05-14T03:36:29.103Z,70.82
2023-05-14T03:38:55.382Z,68.99
2023-05-14T03:41:22.015Z,67.55
2023-05-14T03:43:48.301Z,67.50
2023-05-14T03:46:14.593Z,67.15
2023-05-14T03:48:40.970Z,66.86
2023-05-14T03:51:07.346Z,66.55
2023-05-14T03:53:35.227Z,64.72
2023-05-14T03:56:01.497Z,64.24
2023-05-14T03:58:27.808Z,64.41
2023-05-14T04:00:54.101Z,64.99
2023-05-14T04:03:20.443Z,68.04
2023-05-14T04:05:46.782Z,67.45
2023-05-14T04:08:13.068Z,66.19
2023-05-14T04:10:39.312Z,64.61
2023-05-14T04:13:05.628Z,64.21
2023-05-14T04:15:34.572Z,63.76
2023-05-14T04:18:01.131Z,63.64
2023-05-14T04:20:27.622Z,64.13
2023-05-14T04:22:54.022Z,69.30
2023-05-14T04:25:20.284Z,70.78
2023-05-14T04:27:46.505Z,68.07
2023-05-14T04:30:12.929Z,66.69
2023-05-14T04:32:40.410Z,67.59
2023-05-14T04:35:07.043Z,65.51
2023-05-14T04:37:33.533Z,65.94
2023-05-14T04:39:59.813Z,65.50
2023-05-14T04:42:26.186Z,65.28
2023-05-14T04:44:52.476Z,64.06
2023-05-14T04:47:18.867Z,64.87
2023-05-14T04:49:45.203Z,65.59
2023-05-14T04:52:11.837Z,65.54
2023-05-14T04:54:38.104Z,67.16
2023-05-14T04:57:04.466Z,65.90
2023-05-14T04:59:30.931Z,65.43
2023-05-14T05:01:57.246Z,65.40
2023-05-14T05:04:23.626Z,65.38
2023-05-14T05:06:50.082Z,64.50
2023-05-14T05:09:19.046Z,65.13
2023-05-14T05:11:45.281Z,64.76
2023-05-14T05:14:11.725Z,66.15
2023-05-14T05:16:37.964Z,66.87
2023-05-14T05:19:04.248Z,67.61
2023-05-14T05:21:30.532Z,70.06
2023-05-14T05:23:57.113Z,68.40
2023-05-14T05:26:24.155Z,66.75
2023-05-14T05:28:50.411Z,67.91
2023-05-14T05:31:19.573Z,68.19
2023-05-14T05:33:46.155Z,71.38
2023-05-14T05:36:12.576Z,70.59
2023-05-14T05:38:38.804Z,69.70
2023-05-14T05:41:05.013Z,68.94
2023-05-14T05:43:31.375Z,67.57
2023-05-14T05:45:57.613Z,69.28
2023-05-14T05:48:23.882Z,70.01
2023-05-14T05:50:50.142Z,68.86
2023-05-14T05:53:16.552Z,67.94
2023-05-14T05:55:43.054Z,67.26
2023-05-14T05:58:09.460Z,66.18
2023-05-14T06:00:35.892Z,66.08
2023-05-14T06:03:02.236Z,65.75
2023-05-14T06:05:28.716Z,66.02
2023-05-14T06:07:55.045Z,65.70
2023-05-14T06:10:21.472Z,65.88
2023-05-14T06:12:47.906Z,64.81
2023-05-14T06:15:14.221Z,63.75
2023-05-14T06:17:40.604Z,63.52
2023-05-14T06:20:07.176Z,64.23
2023-05-14T06:22:33.594Z,63.99
2023-05-14T06:25:00.212Z,62.86
2023-05-14T06:27:26.518Z,62.44
2023-05-14T06:29:52.795Z,62.10
2023-05-14T06:32:19.108Z,61.72
2023-05-14T06:34:45.562Z,61.79
2023-05-14T06:37:11.896Z,60.25
2023-05-14T06:39:38.528Z,61.26
2023-05-14T06:42:05.109Z,61.96
2023-05-14T06:44:31.509Z,60.33
2023-05-14T06:46:57.795Z,58.97
2023-05-14T06:49:24.166Z,59.24
2023-05-14T06:51:50.441Z,58.95
2023-05-14T06:54:16.807Z,58.63
2023-05-14T06:56:43.229Z,58.66
2023-05-14T06:59:09.498Z,58.61
2023-05-14T07:01:35.832Z,58.48
2023-05-14T07:04:02.437Z,58.29
2023-05-14T07:06:28.743Z,57.76
2023-05-14T07:08:55.018Z,57.30
2023-05-14T07:11:21.354Z,56.67
2023-05-14T07:13:47.671Z,55.61
2023-05-14T07:16:13.960Z,55.51
2023-05-14T07:18:40.402Z,54.43
2023-05-14T07:21:06.783Z,54.77
2023-05-14T07:23:33.537Z,55.71
2023-05-14T07:25:59.968Z,55.58
2023-05-14T07:28:26.252Z,55.23
2023-05-14T07:30:52.633Z,54.97
2023-05-14T07:33:19.098Z,53.79
2023-05-14T07:35:45.382Z,53.39
2023-05-14T07:38:11.691Z,53.00
2023-05-14T07:40:37.967Z,53.42
2023-05-14T07:43:04.218Z,53.14
2023-05-14T07:45:30.520Z,53.41
2023-05-14T07:47:56.942Z,51.69
2023-05-14T07:50:23.581Z,51.45
2023-05-14T07:52:50.000Z,51.93
2023-05-14T07:55:16.447Z,52.53
2023-05-14T07:57:42.759Z,52.38
2023-05-14T08:00:09.187Z,50.95
2023-05-14T08:02:41.659Z,51.21
2023-05-14T08:05:08.580Z,50.15
2023-05-14T08:07:35.018Z,46.79
2023-05-14T08:10:01.667Z,48.42
2023-05-14T08:12:28.055Z,48.80
2023-05-14T08:14:58.534Z,49.15
2023-05-14T08:17:25.639Z,49.20
2023-05-14T08:19:52.044Z,48.99
2023-05-14T08:22:18.348Z,48.84
2023-05-14T08:24:44.718Z,48.54
2023-05-14T08:27:11.155Z,48.72
2023-05-14T08:29:37.517Z,48.12
2023-05-14T08:32:12.102Z,48.14
2023-05-14T08:34:48.755Z,46.96
2023-05-14T08:37:15.024Z,46.87
2023-05-14T08:39:41.309Z,46.33
2023-05-14T08:42:09.805Z,46.77
2023-05-14T08:44:38.577Z,46.89
2023-05-14T08:47:04.994Z,46.71
2023-05-14T08:49:41.773Z,46.34
2023-05-14T08:52:08.778Z,46.58
2023-05-14T08:54:35.230Z,46.35
2023-05-14T08:57:04.590Z,45.21
2023-05-14T08:59:30.947Z,44.47
2023-05-14T09:01:59.506Z,43.03
2023-05-14T09:04:26.779Z,44.58
2023-05-14T09:06:53.689Z,44.93
2023-05-14T09:09:20.322Z,44.07
2023-05-14T09:11:49.149Z,45.51
2023-05-14T09:14:15.968Z,44.49
2023-05-14T09:16:44.614Z,43.40
2023-05-14T09:19:12.436Z,44.28
2023-05-14T09:21:39.479Z,43.64
2023-05-14T09:24:05.951Z,43.74
2023-05-14T09:26:33.222Z,43.97
2023-05-14T09:29:00.730Z,44.23
2023-05-14T09:31:28.851Z,43.78
2023-05-14T09:33:55.320Z,42.50
2023-05-14T09:36:21.607Z,40.29
2023-05-14T09:38:47.868Z,41.94
2023-05-14T09:41:14.404Z,42.18
2023-05-14T09:43:40.682Z,41.18
2023-05-14T09:46:06.985Z,41.26
2023-05-14T09:48:33.341Z,39.69
2023-05-14T09:50:59.630Z,40.51
2023-05-14T09:53:25.971Z,41.20
2023-05-14T09:55:52.258Z,41.40
2023-05-14T09:58:18.596Z,40.74
2023-05-14T10:00:45.693Z,41.55
2023-05-14T10:03:12.955Z,42.28
2023-05-14T10:05:40.206Z,41.98
2023-05-14T10:08:13.805Z,40.22
2023-05-14T10:10:40.096Z,41.75
2023-05-14T10:13:13.593Z,40.25
2023-05-14T10:15:42.870Z,42.35
2023-05-14T10:18:11.552Z,40.41
2023-05-14T10:20:39.431Z,41.82
2023-05-14T10:23:06.393Z,36.86
2023-05-14T10:25:34.042Z,36.72
2023-05-14T10:28:01.173Z,37.07
2023-05-14T10:30:27.813Z,38.62
2023-05-14T10:33:13.933Z,37.95
2023-05-14T10:35:57.312Z,39.66
2023-05-14T10:38:27.367Z,37.59
2023-05-14T10:40:54.772Z,35.47
2023-05-14T10:43:22.111Z,36.83
2023-05-14T10:45:48.408Z,35.16
2023-05-14T10:48:14.728Z,35.88
2023-05-14T10:50:41.248Z,33.47
2023-05-14T10:53:10.372Z,35.00
2023-05-14T10:55:38.031Z,35.32
2023-05-14T10:58:04.381Z,35.71
2023-05-14T11:00:33.012Z,35.70
2023-05-14T11:02:59.749Z,34.76
2023-05-14T11:05:26.066Z,33.88
2023-05-14T11:07:55.888Z,33.62
2023-05-14T11:10:22.806Z,34.03
2023-05-14T11:12:49.854Z,35.38
2023-05-14T11:15:17.444Z,34.81
2023-05-14T11:17:44.748Z,34.79
2023-05-14T11:20:11.337Z,33.87
2023-05-14T11:22:38.318Z,34.21
2023-05-14T11:25:04.990Z,34.57
2023-05-14T11:27:33.084Z,34.71
2023-05-14T11:29:59.573Z,34.33
2023-05-14T11:32:26.069Z,34.17
2023-05-14T11:34:52.595Z,34.82
2023-05-14T11:37:18.941Z,35.89
2023-05-14T11:39:46.410Z,35.77
2023-05-14T11:42:12.804Z,35.71
2023-05-14T11:44:39.127Z,35.05
2023-05-14T11:47:05.617Z,35.30
2023-05-14T11:49:32.508Z,34.47
2023-05-14T11:51:59.826Z,34.87
2023-05-14T11:54:26.754Z,34.94
2023-05-14T11:56:54.171Z,35.19
2023-05-14T11:59:20.629Z,35.50
2023-05-14T12:01:49.522Z,36.08
2023-05-14T12:04:17.543Z,37.18
2023-05-14T12:06:43.863Z,36.98
2023-05-14T12:09:12.017Z,36.51
2023-05-14T12:11:39.463Z,35.75
2023-05-14T12:14:15.577Z,36.27
2023-05-14T12:16:43.297Z,35.88
2023-05-14T12:19:10.426Z,36.11
2023-05-14T12:21:37.297Z,36.25
2023-05-14T12:24:03.724Z,35.77
2023-05-14T12:26:33.086Z,35.89
2023-05-14T12:29:00.124Z,35.52
2023-05-14T12:31:29.922Z,35.57
2023-05-14T12:33:56.508Z,35.65
2023-05-14T12:36:23.313Z,34.63
2023-05-14T12:38:50.057Z,35.16
2023-05-14T12:41:17.114Z,34.22
2023-05-14T12:43:44.037Z,33.87
2023-05-14T12:46:10.330Z,34.18
2023-05-14T12:48:36.670Z,34.60
2023-05-14T12:51:03.137Z,34.58
2023-05-14T12:53:29.376Z,34.78
2023-05-14T12:55:55.750Z,34.65
2023-05-14T12:58:22.192Z,34.68
2023-05-14T13:00:48.436Z,34.82
2023-05-14T13:03:14.770Z,34.36
2023-05-14T13:05:41.194Z,34.27
2023-05-14T13:08:08.558Z,33.37
2023-05-14T13:10:35.083Z,32.74
2023-05-14T13:13:01.384Z,31.68
2023-05-14T13:15:27.968Z,32.66
2023-05-14T13:17:54.407Z,33.12
2023-05-14T13:20:20.770Z,34.29
2023-05-14T13:22:47.067Z,33.77
2023-05-14T13:25:13.353Z,33.50
2023-05-14T13:27:40.078Z,32.97
2023-05-14T13:30:06.670Z,32.02
2023-05-14T13:32:32.940Z,32.34
2023-05-14T13:34:59.308Z,33.29
2023-05-14T13:37:25.607Z,33.35
2023-05-14T13:39:51.955Z,32.75
2023-05-14T13:42:18.407Z,33.48
2023-05-14T13:44:44.739Z,33.10
2023-05-14T13:47:11.059Z,32.67
2023-05-14T13:49:37.421Z,32.67
2023-05-14T13:52:04.192Z,33.08
2023-05-14T13:54:30.557Z,34.12
2023-05-14T13:56:56.923Z,34.68
2023-05-14T13:59:23.355Z,34.23
2023-05-14T14:01:49.665Z,34.16
2023-05-14T14:04:16.205Z,34.52
2023-05-14T14:06:42.566Z,34.85
2023-05-14T14:09:08.853Z,34.79
2023-05-14T14:11:35.180Z,34.92
2023-05-14T14:14:01.453Z,35.82
2023-05-14T14:16:27.939Z,35.96
2023-05-14T14:18:54.335Z,36.12
2023-05-14T14:21:20.799Z,35.90
2023-05-14T14:23:47.104Z,35.96
2023-05-14T14:26:13.526Z,35.87
2023-05-14T14:28:39.958Z,36.55
2023-05-14T14:31:06.270Z,38.08
2023-05-14T14:33:32.607Z,38.60
2023-05-14T14:35:58.996Z,38.04
2023-05-14T14:38:25.355Z,37.86
2023-05-14T14:40:51.669Z,38.78
2023-05-14T14:43:18.023Z,39.02
2023-05-14T14:45:45.234Z,39.92
2023-05-14T14:48:23.994Z,41.36
2023-05-14T14:50:50.637Z,41.45
2023-05-14T14:53:21.130Z,41.72
2023-05-14T14:55:48.112Z,42.14
2023-05-14T14:58:14.556Z,42.21
2023-05-14T15:00:41.427Z,43.39
2023-05-14T15:03:07.975Z,43.86
2023-05-14T15:05:34.554Z,43.48
2023-05-14T15:08:00.886Z,43.37
2023-05-14T15:10:27.776Z,42.80
2023-05-14T15:12:57.483Z,42.07
2023-05-14T15:15:24.248Z,44.20
2023-05-14T15:17:51.000Z,43.31
2023-05-14T15:20:17.960Z,43.48
2023-05-14T15:22:44.271Z,44.00
2023-05-14T15:25:10.588Z,44.49
2023-05-14T15:27:36.978Z,43.99
2023-05-14T15:30:03.528Z,44.03
2023-05-14T15:32:29.858Z,46.32
2023-05-14T15:34:56.205Z,46.99
2023-05-14T15:37:25.362Z,47.22
2023-05-14T15:39:51.831Z,46.36
2023-05-14T15:42:18.914Z,46.91
2023-05-14T15:44:45.175Z,47.27
2023-05-14T15:47:11.480Z,48.32
2023-05-14T15:49:37.775Z,48.15
2023-05-14T15:52:04.225Z,47.72
2023-05-14T15:54:30.558Z,47.67
2023-05-14T15:56:56.881Z,47.48
2023-05-14T15:59:23.143Z,48.46
2023-05-14T16:01:50.173Z,47.65
2023-05-14T16:04:19.030Z,48.41
2023-05-14T16:06:45.337Z,48.45
2023-05-14T16:09:11.945Z,49.56
2023-05-14T16:11:38.287Z,49.24
2023-05-14T16:14:04.682Z,49.40
2023-05-14T16:16:31.070Z,49.64
2023-05-14T16:18:58.505Z,50.04
2023-05-14T16:21:24.902Z,50.13
2023-05-14T16:23:51.297Z,50.11
2023-05-14T16:26:17.591Z,49.93
2023-05-14T16:28:44.004Z,49.61
2023-05-14T16:31:10.309Z,50.59
2023-05-14T16:33:36.682Z,50.89
2023-05-14T16:36:03.201Z,51.30
2023-05-14T16:38:30.343Z,51.25
2023-05-14T16:40:57.548Z,51.55
2023-05-14T16:43:24.408Z,51.78
2023-05-14T16:45:54.192Z,50.93
2023-05-14T16:48:23.559Z,51.44
2023-05-14T16:50:50.777Z,50.77
2023-05-14T16:53:17.090Z,51.83
2023-05-14T16:55:46.029Z,52.51
2023-05-14T16:58:12.703Z,52.42
2023-05-14T17:00:39.193Z,52.68
2023-05-14T17:03:09.895Z,52.85
2023-05-14T17:05:38.431Z,53.05
2023-05-14T17:08:04.711Z,53.80
2023-05-14T17:10:31.025Z,52.67
2023-05-14T17:12:57.412Z,52.23
2023-05-14T17:15:42.132Z,53.94
2023-05-14T17:18:08.480Z,54.00
2023-05-14T17:20:34.883Z,53.71
2023-05-14T17:23:01.211Z,54.43
2023-05-14T17:25:27.543Z,53.93
2023-05-14T17:27:53.944Z,54.19
2023-05-14T17:30:20.420Z,53.29
2023-05-14T17:32:48.422Z,53.53
2023-05-14T17:35:15.991Z,53.51
2023-05-14T17:37:42.405Z,53.03
2023-05-14T17:40:09.296Z,51.93
2023-05-14T17:42:35.574Z,51.60
2023-05-14T17:45:02.060Z,51.42
2023-05-14T17:47:28.570Z,51.43
2023-05-14T17:49:54.948Z,50.94
2023-05-14T17:52:24.686Z,51.25
2023-05-14T17:54:51.854Z,50.29
2023-05-14T17:57:18.169Z,50.50
2023-05-14T17:59:44.493Z,50.79
2023-05-14T18:02:10.798Z,50.44
2023-05-14T18:04:37.237Z,50.31
2023-05-14T18:07:03.623Z,49.91
2023-05-14T18:09:29.952Z,49.85
2023-05-14T18:11:57.059Z,50.26
2023-05-14T18:14:23.500Z,50.65
2023-05-14T18:16:50.975Z,51.33
2023-05-14T18:19:17.454Z,51.84
2023-05-14T18:21:44.068Z,51.95
2023-05-14T18:24:10.509Z,51.82
2023-05-14T18:26:36.936Z,52.28
2023-05-14T18:29:03.654Z,51.90
2023-05-14T18:31:30.141Z,51.83
2023-05-14T18:33:56.586Z,52.06
2023-05-14T18:36:22.903Z,52.61
2023-05-14T18:38:49.276Z,59.82
2023-05-14T18:41:15.885Z,64.13
2023-05-14T18:43:42.220Z,63.90
2023-05-14T18:46:08.675Z,58.76
2023-05-14T18:48:35.125Z,57.92
2023-05-14T18:51:01.718Z,58.89
2023-05-14T18:53:28.354Z,61.37
2023-05-14T18:55:54.851Z,63.03
2023-05-14T18:58:21.283Z,63.95
2023-05-14T19:00:47.784Z,63.09
2023-05-14T19:06:34.454Z,64.27
2023-05-14T19:09:00.960Z,62.06
2023-05-14T19:11:27.370Z,61.67
2023-05-14T19:13:53.792Z,62.05
2023-05-14T19:16:21.627Z,62.60
2023-05-14T19:18:48.340Z,68.16
2023-05-14T19:21:14.824Z,68.43
2023-05-14T19:23:41.228Z,66.09
2023-05-14T19:26:07.697Z,66.49
2023-05-14T19:28:34.955Z,68.21
2023-05-14T19:31:06.148Z,71.34
2023-05-14T19:33:32.874Z,71.43
2023-05-14T19:35:59.856Z,70.56
2023-05-14T19:38:26.258Z,69.72
2023-05-14T19:40:52.609Z,68.54
2023-05-14T19:43:19.074Z,67.19
2023-05-14T19:45:45.460Z,65.45
2023-05-14T19:48:12.068Z,64.32
2023-05-14T19:50:38.601Z,64.57
2023-05-14T19:53:06.266Z,65.09
2023-05-14T19:55:32.791Z,66.92
2023-05-14T19:57:59.122Z,69.80
2023-05-14T20:00:25.650Z,71.89
2023-05-14T20:02:52.259Z,70.84
2023-05-14T20:05:18.762Z,73.25
2023-05-14T20:07:45.220Z,73.68
2023-05-14T20:10:11.805Z,73.49
2023-05-14T20:12:38.164Z,73.51
2023-05-14T20:15:04.882Z,72.19
2023-05-14T20:17:31.243Z,68.93
2023-05-14T20:19:57.622Z,68.17
2023-05-14T20:22:24.029Z,67.74
2023-05-14T20:24:50.432Z,67.99
2023-05-14T20:27:16.769Z,67.73
2023-05-14T20:29:43.165Z,69.11
2023-05-14T20:32:09.818Z,70.18
2023-05-14T20:34:36.167Z,69.47
2023-05-14T20:37:02.804Z,68.52
2023-05-14T20:39:29.480Z,67.80
2023-05-14T20:41:56.162Z,67.68
2023-05-14T20:44:23.027Z,68.31
2023-05-14T20:46:49.484Z,69.56
2023-05-14T20:49:15.946Z,69.04
2023-05-14T20:51:42.226Z,68.10
2023-05-14T20:54:08.553Z,68.05
2023-05-14T20:56:34.872Z,68.54
2023-05-14T20:59:01.309Z,69.07
2023-05-14T21:01:27.612Z,69.79
2023-05-14T21:03:54.104Z,70.33
2023-05-14T21:06:20.608Z,70.84
2023-05-14T21:08:46.914Z,70.98
2023-05-14T21:11:13.298Z,71.46
2023-05-14T21:13:39.610Z,71.81
2023-05-14T21:16:06.071Z,72.03
2023-05-14T21:18:32.451Z,71.97
2023-05-14T21:20:58.764Z,71.88
2023-05-14T21:23:25.077Z,73.00
2023-05-14T21:25:51.421Z,73.29
2023-05-14T21:28:17.702Z,75.22
2023-05-14T21:30:44.058Z,78.79
2023-05-14T21:33:10.404Z,81.77
2023-05-14T21:35:36.723Z,83.89
2023-05-14T21:38:03.072Z,83.22
2023-05-14T21:40:29.345Z,83.17
2023-05-14T21:42:55.743Z,83.86
2023-05-14T21:45:23.582Z,85.07
2023-05-14T21:47:50.537Z,85.51
2023-05-14T21:50:16.975Z,85.67
2023-05-14T21:52:43.324Z,85.78
2023-05-14T21:55:09.752Z,86.15
2023-05-14T21:57:36.065Z,85.69
2023-05-14T22:00:02.774Z,86.03
2023-05-14T22:02:31.525Z,86.27
2023-05-14T22:04:57.891Z,86.10
2023-05-14T22:07:24.141Z,85.45
2023-05-14T22:09:50.377Z,85.95
2023-05-14T22:12:16.666Z,85.89
2023-05-14T22:14:42.980Z,86.13
2023-05-14T22:17:09.277Z,85.67
2023-05-14T22:19:35.553Z,85.70
2023-05-14T22:22:01.798Z,86.20
2023-05-14T22:24:28.100Z,86.13
2023-05-14T22:26:54.387Z,86.06
2023-05-14T22:29:20.648Z,86.22
2023-05-14T22:31:46.947Z,86.28
2023-05-14T22:34:13.245Z,86.02
2023-05-14T22:36:39.774Z,86.14
2023-05-14T22:39:06.024Z,86.40
2023-05-14T22:41:32.294Z,86.57
2023-05-14T22:43:58.686Z,86.54
2023-05-14T22:46:25.126Z,86.84
2023-05-14T22:48:51.482Z,86.93
2023-05-14T22:51:17.888Z,87.04
2023-05-14T22:53:44.329Z,86.94
2023-05-14T22:56:10.661Z,86.73
2023-05-14T22:58:36.916Z,86.82
2023-05-14T23:01:03.180Z,86.83
2023-05-14T23:03:29.494Z,87.07
2023-05-14T23:05:55.829Z,87.61
2023-05-14T23:08:22.081Z,87.61
2023-05-14T23:10:48.618Z,87.56
2023-05-14T23:13:14.907Z,87.78
2023-05-14T23:15:42.075Z,87.93
2023-05-14T23:18:08.470Z,87.88
2023-05-14T23:20:34.844Z,87.40
2023-05-14T23:23:01.124Z,87.74
2023-05-14T23:25:27.464Z,87.49
2023-05-14T23:27:53.751Z,87.67
2023-05-14T23:30:19.999Z,86.71
2023-05-14T23:32:46.316Z,87.28
2023-05-14T23:35:12.755Z,87.56
2023-05-14T23:37:39.643Z,87.77
2023-05-14T23:40:06.378Z,87.84
2023-05-14T23:42:32.667Z,87.50
2023-05-14T23:44:58.954Z,86.40
2023-05-14T23:47:25.425Z,87.65
2023-05-14T23:49:51.777Z,87.49
2023-05-14T23:52:18.069Z,85.85
2023-05-14T23:54:44.294Z,84.11
2023-05-14T23:57:10.715Z,83.78
2023-05-14T23:59:37.123Z,83.92
